sensor_id;sensor_type;location;lat;lon;timestamp;P1;durP1;ratioP1;P2;durP2;ratioP2
25091;SDS011;13082;52.374;4.946;2022-12-07T00:01:06;5.07;;;1.77;;
25091;SDS011;13082;52.374;4.946;2022-12-07T00:03:36;3.73;;;1.53;;
25091;SDS011;13082;52.374;4.946;2022-12-07T00:06:03;6.57;;;1.50;;
25091;SDS011;13082;52.374;4.946;2022-12-07T00:08:30;4.67;;;1.40;;
25091;SDS011;13082;52.374;4.946;2022-12-07T00:11:03;4.33;;;1.30;;
25091;SDS011;13082;52.374;4.946;2022-12-07T00:13:30;3.10;;;1.40;;
25091;SDS011;13082;52.374;4.946;2022-12-07T00:16:00;4.10;;;1.93;;
25091;SDS011;13082;52.374;4.946;2022-12-07T00:18:36;7.90;;;1.67;;
25091;SDS011;13082;52.374;4.946;2022-12-07T00:21:06;5.67;;;1.70;;
25091;SDS011;13082;52.374;4.946;2022-12-07T00:23:35;1.73;;;1.60;;
25091;SDS011;13082;52.374;4.946;2022-12-07T00:26:11;6.33;;;1.60;;
25091;SDS011;13082;52.374;4.946;2022-12-07T00:28:38;4.37;;;1.53;;
25091;SDS011;13082;52.374;4.946;2022-12-07T00:31:05;2.30;;;1.23;;
25091;SDS011;13082;52.374;4.946;2022-12-07T00:33:33;4.80;;;1.33;;
25091;SDS011;13082;52.374;4.946;2022-12-07T00:36:00;4.27;;;1.80;;
25091;SDS011;13082;52.374;4.946;2022-12-07T00:38:27;2.83;;;1.20;;
25091;SDS011;13082;52.374;4.946;2022-12-07T00:40:55;2.00;;;0.90;;
25091;SDS011;13082;52.374;4.946;2022-12-07T00:43:22;3.27;;;1.40;;
25091;SDS011;13082;52.374;4.946;2022-12-07T00:45:48;3.30;;;0.90;;
25091;SDS011;13082;52.374;4.946;2022-12-07T00:48:13;1.47;;;0.90;;
25091;SDS011;13082;52.374;4.946;2022-12-07T00:50:39;2.93;;;1.40;;
25091;SDS011;13082;52.374;4.946;2022-12-07T00:53:04;3.20;;;1.13;;
25091;SDS011;13082;52.374;4.946;2022-12-07T00:55:33;1.80;;;1.00;;
25091;SDS011;13082;52.374;4.946;2022-12-07T00:58:02;3.60;;;1.20;;
25091;SDS011;13082;52.374;4.946;2022-12-07T01:00:28;5.40;;;1.30;;
25091;SDS011;13082;52.374;4.946;2022-12-07T01:02:54;2.77;;;1.20;;
25091;SDS011;13082;52.374;4.946;2022-12-07T01:05:19;6.83;;;1.50;;
25091;SDS011;13082;52.374;4.946;2022-12-07T01:07:45;3.27;;;1.23;;
25091;SDS011;13082;52.374;4.946;2022-12-07T01:10:11;4.23;;;1.20;;
25091;SDS011;13082;52.374;4.946;2022-12-07T01:12:37;2.93;;;0.93;;
25091;SDS011;13082;52.374;4.946;2022-12-07T01:15:03;4.87;;;1.60;;
25091;SDS011;13082;52.374;4.946;2022-12-07T01:17:29;5.20;;;1.10;;
25091;SDS011;13082;52.374;4.946;2022-12-07T01:19:55;2.10;;;1.37;;
25091;SDS011;13082;52.374;4.946;2022-12-07T01:22:20;7.63;;;1.33;;
25091;SDS011;13082;52.374;4.946;2022-12-07T01:24:46;4.97;;;1.50;;
25091;SDS011;13082;52.374;4.946;2022-12-07T01:27:12;3.00;;;1.13;;
25091;SDS011;13082;52.374;4.946;2022-12-07T01:29:38;4.03;;;1.40;;
25091;SDS011;13082;52.374;4.946;2022-12-07T01:32:04;3.40;;;1.50;;
25091;SDS011;13082;52.374;4.946;2022-12-07T01:34:30;4.40;;;1.33;;
25091;SDS011;13082;52.374;4.946;2022-12-07T01:36:56;2.07;;;1.00;;
25091;SDS011;13082;52.374;4.946;2022-12-07T01:39:21;3.03;;;1.00;;
25091;SDS011;13082;52.374;4.946;2022-12-07T01:41:47;6.77;;;1.77;;
25091;SDS011;13082;52.374;4.946;2022-12-07T01:46:48;5.13;;;1.23;;
25091;SDS011;13082;52.374;4.946;2022-12-07T01:49:35;1.70;;;0.90;;
25091;SDS011;13082;52.374;4.946;2022-12-07T01:54:51;4.87;;;1.93;;
25091;SDS011;13082;52.374;4.946;2022-12-07T01:57:19;1.63;;;0.97;;
25091;SDS011;13082;52.374;4.946;2022-12-07T01:59:45;1.77;;;1.00;;
25091;SDS011;13082;52.374;4.946;2022-12-07T02:02:17;4.47;;;1.00;;
25091;SDS011;13082;52.374;4.946;2022-12-07T02:04:56;2.43;;;1.00;;
25091;SDS011;13082;52.374;4.946;2022-12-07T02:07:25;1.80;;;1.00;;
25091;SDS011;13082;52.374;4.946;2022-12-07T02:09:51;4.27;;;1.80;;
25091;SDS011;13082;52.374;4.946;2022-12-07T02:12:17;5.20;;;2.20;;
25091;SDS011;13082;52.374;4.946;2022-12-07T02:14:43;4.93;;;2.23;;
25091;SDS011;13082;52.374;4.946;2022-12-07T02:22:46;2.80;;;2.17;;
25091;SDS011;13082;52.374;4.946;2022-12-07T02:30:31;4.97;;;1.33;;
25091;SDS011;13082;52.374;4.946;2022-12-07T02:33:11;5.47;;;2.47;;
25091;SDS011;13082;52.374;4.946;2022-12-07T02:35:53;4.13;;;1.20;;
25091;SDS011;13082;52.374;4.946;2022-12-07T02:38:42;3.53;;;1.57;;
25091;SDS011;13082;52.374;4.946;2022-12-07T02:41:22;5.33;;;1.70;;
25091;SDS011;13082;52.374;4.946;2022-12-07T02:43:53;3.17;;;1.83;;
25091;SDS011;13082;52.374;4.946;2022-12-07T02:46:23;4.87;;;1.00;;
25091;SDS011;13082;52.374;4.946;2022-12-07T02:48:54;4.23;;;1.47;;
25091;SDS011;13082;52.374;4.946;2022-12-07T02:51:20;4.53;;;1.10;;
25091;SDS011;13082;52.374;4.946;2022-12-07T02:53:47;6.73;;;1.50;;
25091;SDS011;13082;52.374;4.946;2022-12-07T02:59:02;7.97;;;1.23;;
25091;SDS011;13082;52.374;4.946;2022-12-07T03:10:42;2.83;;;1.20;;
25091;SDS011;13082;52.374;4.946;2022-12-07T03:16:16;8.30;;;1.53;;
25091;SDS011;13082;52.374;4.946;2022-12-07T03:18:47;3.30;;;1.27;;
25091;SDS011;13082;52.374;4.946;2022-12-07T03:21:18;8.20;;;1.90;;
25091;SDS011;13082;52.374;4.946;2022-12-07T03:23:49;5.27;;;1.50;;
25091;SDS011;13082;52.374;4.946;2022-12-07T03:26:19;3.50;;;1.40;;
25091;SDS011;13082;52.374;4.946;2022-12-07T03:28:52;6.27;;;1.67;;
25091;SDS011;13082;52.374;4.946;2022-12-07T03:31:24;3.70;;;1.07;;
25091;SDS011;13082;52.374;4.946;2022-12-07T03:33:59;5.57;;;1.30;;
25091;SDS011;13082;52.374;4.946;2022-12-07T03:36:35;2.47;;;1.23;;
25091;SDS011;13082;52.374;4.946;2022-12-07T03:39:11;9.93;;;1.67;;
25091;SDS011;13082;52.374;4.946;2022-12-07T03:41:49;5.87;;;1.70;;
25091;SDS011;13082;52.374;4.946;2022-12-07T03:44:16;4.37;;;1.20;;
25091;SDS011;13082;52.374;4.946;2022-12-07T03:49:43;1.73;;;1.37;;
25091;SDS011;13082;52.374;4.946;2022-12-07T03:52:33;4.93;;;1.30;;
25091;SDS011;13082;52.374;4.946;2022-12-07T03:57:57;2.23;;;1.33;;
25091;SDS011;13082;52.374;4.946;2022-12-07T04:00:26;6.87;;;1.37;;
25091;SDS011;13082;52.374;4.946;2022-12-07T04:02:52;9.97;;;1.57;;
25091;SDS011;13082;52.374;4.946;2022-12-07T04:05:18;6.33;;;1.20;;
25091;SDS011;13082;52.374;4.946;2022-12-07T04:07:44;3.63;;;1.00;;
25091;SDS011;13082;52.374;4.946;2022-12-07T04:10:09;4.20;;;1.30;;
25091;SDS011;13082;52.374;4.946;2022-12-07T04:12:36;3.43;;;1.03;;
25091;SDS011;13082;52.374;4.946;2022-12-07T04:15:02;2.37;;;0.87;;
25091;SDS011;13082;52.374;4.946;2022-12-07T04:17:28;2.40;;;0.90;;
25091;SDS011;13082;52.374;4.946;2022-12-07T04:19:54;9.20;;;1.30;;
25091;SDS011;13082;52.374;4.946;2022-12-07T04:22:19;2.00;;;1.10;;
25091;SDS011;13082;52.374;4.946;2022-12-07T04:24:45;2.93;;;1.20;;
25091;SDS011;13082;52.374;4.946;2022-12-07T04:27:11;2.70;;;1.00;;
25091;SDS011;13082;52.374;4.946;2022-12-07T04:29:36;3.63;;;1.07;;
25091;SDS011;13082;52.374;4.946;2022-12-07T04:32:02;4.17;;;1.70;;
25091;SDS011;13082;52.374;4.946;2022-12-07T04:34:27;7.50;;;1.60;;
25091;SDS011;13082;52.374;4.946;2022-12-07T04:36:53;2.70;;;1.50;;
25091;SDS011;13082;52.374;4.946;2022-12-07T04:39:23;7.03;;;1.80;;
25091;SDS011;13082;52.374;4.946;2022-12-07T04:41:54;8.13;;;2.00;;
25091;SDS011;13082;52.374;4.946;2022-12-07T04:44:20;11.77;;;2.13;;
25091;SDS011;13082;52.374;4.946;2022-12-07T04:46:46;5.43;;;1.97;;
25091;SDS011;13082;52.374;4.946;2022-12-07T04:49:13;5.50;;;1.70;;
25091;SDS011;13082;52.374;4.946;2022-12-07T04:51:39;7.60;;;1.87;;
25091;SDS011;13082;52.374;4.946;2022-12-07T04:54:05;5.93;;;2.53;;
25091;SDS011;13082;52.374;4.946;2022-12-07T04:56:31;6.17;;;1.93;;
25091;SDS011;13082;52.374;4.946;2022-12-07T04:58:57;10.30;;;2.37;;
25091;SDS011;13082;52.374;4.946;2022-12-07T05:01:22;6.37;;;1.77;;
25091;SDS011;13082;52.374;4.946;2022-12-07T05:03:49;5.17;;;1.50;;
25091;SDS011;13082;52.374;4.946;2022-12-07T05:06:15;3.53;;;1.57;;
25091;SDS011;13082;52.374;4.946;2022-12-07T05:08:41;6.47;;;1.40;;
25091;SDS011;13082;52.374;4.946;2022-12-07T05:11:08;5.43;;;1.40;;
25091;SDS011;13082;52.374;4.946;2022-12-07T05:13:54;2.53;;;1.23;;
25091;SDS011;13082;52.374;4.946;2022-12-07T05:16:20;9.83;;;1.40;;
25091;SDS011;13082;52.374;4.946;2022-12-07T05:18:46;5.10;;;1.40;;
25091;SDS011;13082;52.374;4.946;2022-12-07T05:21:11;4.00;;;1.23;;
25091;SDS011;13082;52.374;4.946;2022-12-07T05:23:37;3.90;;;1.53;;
25091;SDS011;13082;52.374;4.946;2022-12-07T05:26:02;3.83;;;1.43;;
25091;SDS011;13082;52.374;4.946;2022-12-07T05:28:28;8.83;;;1.60;;
25091;SDS011;13082;52.374;4.946;2022-12-07T05:30:54;5.90;;;1.40;;
25091;SDS011;13082;52.374;4.946;2022-12-07T05:33:19;4.80;;;1.50;;
25091;SDS011;13082;52.374;4.946;2022-12-07T05:35:45;3.43;;;1.27;;
25091;SDS011;13082;52.374;4.946;2022-12-07T05:38:10;4.43;;;1.40;;
25091;SDS011;13082;52.374;4.946;2022-12-07T05:40:36;1.90;;;1.00;;
25091;SDS011;13082;52.374;4.946;2022-12-07T05:43:02;5.80;;;1.37;;
25091;SDS011;13082;52.374;4.946;2022-12-07T05:45:27;5.80;;;1.93;;
25091;SDS011;13082;52.374;4.946;2022-12-07T05:47:53;2.43;;;1.40;;
25091;SDS011;13082;52.374;4.946;2022-12-07T05:50:18;4.47;;;1.07;;
25091;SDS011;13082;52.374;4.946;2022-12-07T05:52:44;3.43;;;1.00;;
25091;SDS011;13082;52.374;4.946;2022-12-07T05:55:10;1.83;;;1.03;;
25091;SDS011;13082;52.374;4.946;2022-12-07T05:57:35;2.50;;;1.13;;
25091;SDS011;13082;52.374;4.946;2022-12-07T06:00:02;7.60;;;1.30;;
25091;SDS011;13082;52.374;4.946;2022-12-07T06:02:29;3.23;;;0.80;;
25091;SDS011;13082;52.374;4.946;2022-12-07T06:04:54;6.27;;;1.00;;
25091;SDS011;13082;52.374;4.946;2022-12-07T06:07:20;1.97;;;0.90;;
25091;SDS011;13082;52.374;4.946;2022-12-07T06:09:45;2.20;;;0.80;;
25091;SDS011;13082;52.374;4.946;2022-12-07T06:12:11;2.47;;;1.20;;
25091;SDS011;13082;52.374;4.946;2022-12-07T06:14:56;8.53;;;2.57;;
25091;SDS011;13082;52.374;4.946;2022-12-07T06:17:22;5.70;;;2.23;;
25091;SDS011;13082;52.374;4.946;2022-12-07T06:19:47;3.40;;;1.33;;
25091;SDS011;13082;52.374;4.946;2022-12-07T06:22:13;1.87;;;1.17;;
25091;SDS011;13082;52.374;4.946;2022-12-07T06:24:39;1.20;;;0.83;;
25091;SDS011;13082;52.374;4.946;2022-12-07T06:27:05;0.97;;;0.80;;
25091;SDS011;13082;52.374;4.946;2022-12-07T06:29:31;11.93;;;1.50;;
25091;SDS011;13082;52.374;4.946;2022-12-07T06:31:57;6.33;;;2.07;;
25091;SDS011;13082;52.374;4.946;2022-12-07T06:34:23;6.20;;;1.97;;
25091;SDS011;13082;52.374;4.946;2022-12-07T06:36:49;2.43;;;1.17;;
25091;SDS011;13082;52.374;4.946;2022-12-07T06:39:20;4.93;;;1.33;;
25091;SDS011;13082;52.374;4.946;2022-12-07T06:41:47;1.83;;;1.10;;
25091;SDS011;13082;52.374;4.946;2022-12-07T06:44:13;3.43;;;1.07;;
25091;SDS011;13082;52.374;4.946;2022-12-07T06:46:39;2.30;;;0.93;;
25091;SDS011;13082;52.374;4.946;2022-12-07T06:49:04;1.40;;;0.90;;
25091;SDS011;13082;52.374;4.946;2022-12-07T06:51:31;3.20;;;0.70;;
25091;SDS011;13082;52.374;4.946;2022-12-07T06:53:58;2.93;;;1.00;;
25091;SDS011;13082;52.374;4.946;2022-12-07T06:56:24;6.47;;;1.03;;
25091;SDS011;13082;52.374;4.946;2022-12-07T06:58:49;3.40;;;1.17;;
25091;SDS011;13082;52.374;4.946;2022-12-07T07:01:16;9.30;;;2.10;;
25091;SDS011;13082;52.374;4.946;2022-12-07T07:03:43;11.10;;;2.87;;
25091;SDS011;13082;52.374;4.946;2022-12-07T07:06:10;6.07;;;3.80;;
25091;SDS011;13082;52.374;4.946;2022-12-07T07:08:37;6.73;;;3.73;;
25091;SDS011;13082;52.374;4.946;2022-12-07T07:11:03;6.60;;;2.93;;
25091;SDS011;13082;52.374;4.946;2022-12-07T07:13:29;3.77;;;2.70;;
25091;SDS011;13082;52.374;4.946;2022-12-07T07:15:55;4.30;;;2.20;;
25091;SDS011;13082;52.374;4.946;2022-12-07T07:18:21;8.03;;;1.73;;
25091;SDS011;13082;52.374;4.946;2022-12-07T07:20:46;7.17;;;1.70;;
25091;SDS011;13082;52.374;4.946;2022-12-07T07:23:12;2.10;;;1.43;;
25091;SDS011;13082;52.374;4.946;2022-12-07T07:25:37;3.67;;;1.50;;
25091;SDS011;13082;52.374;4.946;2022-12-07T07:28:03;5.00;;;1.87;;
25091;SDS011;13082;52.374;4.946;2022-12-07T07:30:29;4.97;;;1.60;;
25091;SDS011;13082;52.374;4.946;2022-12-07T07:32:57;10.40;;;2.40;;
25091;SDS011;13082;52.374;4.946;2022-12-07T07:35:27;6.97;;;1.57;;
25091;SDS011;13082;52.374;4.946;2022-12-07T07:37:54;2.70;;;1.47;;
25091;SDS011;13082;52.374;4.946;2022-12-07T07:40:20;5.30;;;1.90;;
25091;SDS011;13082;52.374;4.946;2022-12-07T07:42:49;5.60;;;1.73;;
25091;SDS011;13082;52.374;4.946;2022-12-07T07:45:16;1.63;;;1.27;;
25091;SDS011;13082;52.374;4.946;2022-12-07T07:47:42;3.10;;;1.17;;
25091;SDS011;13082;52.374;4.946;2022-12-07T07:50:08;4.30;;;1.43;;
25091;SDS011;13082;52.374;4.946;2022-12-07T07:52:34;1.90;;;1.20;;
25091;SDS011;13082;52.374;4.946;2022-12-07T07:55:00;3.13;;;1.00;;
25091;SDS011;13082;52.374;4.946;2022-12-07T07:57:25;2.87;;;0.93;;
25091;SDS011;13082;52.374;4.946;2022-12-07T07:59:52;3.03;;;1.30;;
25091;SDS011;13082;52.374;4.946;2022-12-07T08:02:18;3.33;;;1.17;;
25091;SDS011;13082;52.374;4.946;2022-12-07T08:04:44;4.43;;;1.40;;
25091;SDS011;13082;52.374;4.946;2022-12-07T08:07:11;1.87;;;1.00;;
25091;SDS011;13082;52.374;4.946;2022-12-07T08:09:37;3.53;;;1.13;;
25091;SDS011;13082;52.374;4.946;2022-12-07T08:12:03;4.23;;;1.30;;
25091;SDS011;13082;52.374;4.946;2022-12-07T08:14:30;2.33;;;1.30;;
25091;SDS011;13082;52.374;4.946;2022-12-07T08:16:56;3.33;;;1.50;;
25091;SDS011;13082;52.374;4.946;2022-12-07T08:19:21;3.60;;;1.23;;
25091;SDS011;13082;52.374;4.946;2022-12-07T08:21:47;1.00;;;0.90;;
25091;SDS011;13082;52.374;4.946;2022-12-07T08:24:13;0.80;;;0.80;;
25091;SDS011;13082;52.374;4.946;2022-12-07T08:26:39;1.13;;;0.80;;
25091;SDS011;13082;52.374;4.946;2022-12-07T08:29:05;1.97;;;1.00;;
25091;SDS011;13082;52.374;4.946;2022-12-07T08:31:30;1.87;;;1.07;;
25091;SDS011;13082;52.374;4.946;2022-12-07T08:33:56;1.60;;;0.70;;
25091;SDS011;13082;52.374;4.946;2022-12-07T08:36:22;1.70;;;1.00;;
25091;SDS011;13082;52.374;4.946;2022-12-07T08:38:48;3.73;;;1.00;;
25091;SDS011;13082;52.374;4.946;2022-12-07T08:41:14;2.37;;;0.90;;
25091;SDS011;13082;52.374;4.946;2022-12-07T08:43:39;1.50;;;0.80;;
25091;SDS011;13082;52.374;4.946;2022-12-07T08:48:46;5.27;;;1.90;;
25091;SDS011;13082;52.374;4.946;2022-12-07T08:51:21;2.87;;;1.33;;
25091;SDS011;13082;52.374;4.946;2022-12-07T08:53:47;4.50;;;1.23;;
25091;SDS011;13082;52.374;4.946;2022-12-07T08:56:14;5.73;;;1.63;;
25091;SDS011;13082;52.374;4.946;2022-12-07T08:58:39;3.67;;;1.60;;
25091;SDS011;13082;52.374;4.946;2022-12-07T09:01:06;4.07;;;2.50;;
25091;SDS011;13082;52.374;4.946;2022-12-07T09:03:31;4.93;;;1.57;;
25091;SDS011;13082;52.374;4.946;2022-12-07T09:05:57;3.77;;;1.50;;
25091;SDS011;13082;52.374;4.946;2022-12-07T09:08:26;4.80;;;1.90;;
25091;SDS011;13082;52.374;4.946;2022-12-07T09:11:06;3.53;;;1.57;;
25091;SDS011;13082;52.374;4.946;2022-12-07T09:13:31;4.37;;;1.40;;
25091;SDS011;13082;52.374;4.946;2022-12-07T09:15:57;2.13;;;1.10;;
25091;SDS011;13082;52.374;4.946;2022-12-07T09:18:23;3.80;;;1.23;;
25091;SDS011;13082;52.374;4.946;2022-12-07T09:20:49;3.90;;;1.37;;
25091;SDS011;13082;52.374;4.946;2022-12-07T09:23:15;6.87;;;1.37;;
25091;SDS011;13082;52.374;4.946;2022-12-07T09:25:41;2.03;;;1.07;;
25091;SDS011;13082;52.374;4.946;2022-12-07T09:28:07;4.23;;;1.40;;
25091;SDS011;13082;52.374;4.946;2022-12-07T09:30:32;1.23;;;1.13;;
25091;SDS011;13082;52.374;4.946;2022-12-07T09:32:58;3.70;;;1.17;;
25091;SDS011;13082;52.374;4.946;2022-12-07T09:35:24;4.50;;;1.20;;
25091;SDS011;13082;52.374;4.946;2022-12-07T09:37:50;3.37;;;1.23;;
25091;SDS011;13082;52.374;4.946;2022-12-07T09:40:16;6.13;;;1.60;;
25091;SDS011;13082;52.374;4.946;2022-12-07T09:42:45;2.80;;;1.03;;
25091;SDS011;13082;52.374;4.946;2022-12-07T09:45:15;3.87;;;1.40;;
25091;SDS011;13082;52.374;4.946;2022-12-07T09:47:45;2.43;;;1.43;;
25091;SDS011;13082;52.374;4.946;2022-12-07T09:50:15;3.10;;;1.00;;
25091;SDS011;13082;52.374;4.946;2022-12-07T09:52:44;2.60;;;1.10;;
25091;SDS011;13082;52.374;4.946;2022-12-07T09:55:15;4.17;;;1.37;;
25091;SDS011;13082;52.374;4.946;2022-12-07T09:57:44;3.20;;;1.20;;
25091;SDS011;13082;52.374;4.946;2022-12-07T10:00:12;1.70;;;1.00;;
25091;SDS011;13082;52.374;4.946;2022-12-07T10:02:40;8.60;;;1.40;;
25091;SDS011;13082;52.374;4.946;2022-12-07T10:05:14;2.53;;;1.10;;
25091;SDS011;13082;52.374;4.946;2022-12-07T10:07:43;2.40;;;1.00;;
25091;SDS011;13082;52.374;4.946;2022-12-07T10:10:13;5.90;;;1.87;;
25091;SDS011;13082;52.374;4.946;2022-12-07T10:18:37;8.40;;;2.17;;
25091;SDS011;13082;52.374;4.946;2022-12-07T10:21:16;4.60;;;1.80;;
25091;SDS011;13082;52.374;4.946;2022-12-07T10:24:31;4.87;;;1.83;;
25091;SDS011;13082;52.374;4.946;2022-12-07T10:29:20;5.10;;;1.70;;
25091;SDS011;13082;52.374;4.946;2022-12-07T10:31:57;8.00;;;1.93;;
25091;SDS011;13082;52.374;4.946;2022-12-07T10:34:25;5.57;;;1.73;;
25091;SDS011;13082;52.374;4.946;2022-12-07T10:36:54;3.80;;;1.70;;
25091;SDS011;13082;52.374;4.946;2022-12-07T10:39:47;3.23;;;1.73;;
25091;SDS011;13082;52.374;4.946;2022-12-07T10:42:16;3.23;;;1.60;;
25091;SDS011;13082;52.374;4.946;2022-12-07T10:44:44;9.67;;;2.40;;
25091;SDS011;13082;52.374;4.946;2022-12-07T10:47:17;2.27;;;1.33;;
25091;SDS011;13082;52.374;4.946;2022-12-07T10:57:49;6.40;;;1.50;;
25091;SDS011;13082;52.374;4.946;2022-12-07T11:00:22;4.30;;;1.57;;
25091;SDS011;13082;52.374;4.946;2022-12-07T11:08:16;9.03;;;1.30;;
25091;SDS011;13082;52.374;4.946;2022-12-07T11:13:53;7.83;;;1.93;;
25091;SDS011;13082;52.374;4.946;2022-12-07T11:22:00;8.30;;;1.90;;
25091;SDS011;13082;52.374;4.946;2022-12-07T11:30:09;1.30;;;1.17;;
25091;SDS011;13082;52.374;4.946;2022-12-07T11:32:44;2.50;;;1.70;;
25091;SDS011;13082;52.374;4.946;2022-12-07T11:39:15;5.10;;;1.77;;
25091;SDS011;13082;52.374;4.946;2022-12-07T11:41:52;5.13;;;2.03;;
25091;SDS011;13082;52.374;4.946;2022-12-07T11:44:56;6.93;;;2.33;;
25091;SDS011;13082;52.374;4.946;2022-12-07T11:47:28;4.53;;;2.10;;
25091;SDS011;13082;52.374;4.946;2022-12-07T11:55:50;4.87;;;1.33;;
25091;SDS011;13082;52.374;4.946;2022-12-07T12:01:31;1.33;;;1.00;;
25091;SDS011;13082;52.374;4.946;2022-12-07T12:03:58;4.40;;;1.10;;
25091;SDS011;13082;52.374;4.946;2022-12-07T12:06:38;3.13;;;1.50;;
25091;SDS011;13082;52.374;4.946;2022-12-07T12:09:10;8.43;;;1.50;;
25091;SDS011;13082;52.374;4.946;2022-12-07T12:19:40;1.90;;;0.83;;
25091;SDS011;13082;52.374;4.946;2022-12-07T12:24:40;2.20;;;1.00;;
25091;SDS011;13082;52.374;4.946;2022-12-07T12:27:15;2.67;;;1.30;;
25091;SDS011;13082;52.374;4.946;2022-12-07T12:29:51;2.43;;;1.23;;
25091;SDS011;13082;52.374;4.946;2022-12-07T12:32:20;3.07;;;1.30;;
25091;SDS011;13082;52.374;4.946;2022-12-07T12:35:00;4.33;;;1.00;;
25091;SDS011;13082;52.374;4.946;2022-12-07T12:37:45;2.03;;;1.00;;
25091;SDS011;13082;52.374;4.946;2022-12-07T12:40:37;2.77;;;1.00;;
25091;SDS011;13082;52.374;4.946;2022-12-07T12:42:57;0.90;;;0.90;;
25091;SDS011;13082;52.374;4.946;2022-12-07T12:45:23;2.97;;;1.10;;
25091;SDS011;13082;52.374;4.946;2022-12-07T12:47:54;6.80;;;1.40;;
25091;SDS011;13082;52.374;4.946;2022-12-07T12:52:53;3.43;;;1.20;;
25091;SDS011;13082;52.374;4.946;2022-12-07T12:55:43;1.80;;;0.97;;
25091;SDS011;13082;52.374;4.946;2022-12-07T13:00:42;1.37;;;1.00;;
25091;SDS011;13082;52.374;4.946;2022-12-07T13:03:21;0.80;;;0.67;;
25091;SDS011;13082;52.374;4.946;2022-12-07T13:06:16;5.20;;;1.10;;
25091;SDS011;13082;52.374;4.946;2022-12-07T13:08:46;3.23;;;0.97;;
25091;SDS011;13082;52.374;4.946;2022-12-07T13:11:18;1.77;;;0.97;;
25091;SDS011;13082;52.374;4.946;2022-12-07T13:13:52;3.53;;;0.97;;
25091;SDS011;13082;52.374;4.946;2022-12-07T13:16:38;0.90;;;0.80;;
25091;SDS011;13082;52.374;4.946;2022-12-07T13:19:27;3.80;;;1.10;;
25091;SDS011;13082;52.374;4.946;2022-12-07T13:25:09;1.97;;;1.17;;
25091;SDS011;13082;52.374;4.946;2022-12-07T13:27:43;5.47;;;1.23;;
25091;SDS011;13082;52.374;4.946;2022-12-07T13:30:14;5.60;;;1.83;;
25091;SDS011;13082;52.374;4.946;2022-12-07T13:32:42;2.83;;;1.03;;
25091;SDS011;13082;52.374;4.946;2022-12-07T13:35:35;5.53;;;1.53;;
25091;SDS011;13082;52.374;4.946;2022-12-07T13:38:04;3.50;;;1.00;;
25091;SDS011;13082;52.374;4.946;2022-12-07T13:40:39;4.53;;;1.47;;
25091;SDS011;13082;52.374;4.946;2022-12-07T13:43:12;1.23;;;1.03;;
25091;SDS011;13082;52.374;4.946;2022-12-07T13:45:41;4.83;;;1.50;;
25091;SDS011;13082;52.374;4.946;2022-12-07T13:50:58;4.13;;;1.30;;
25091;SDS011;13082;52.374;4.946;2022-12-07T13:53:26;3.17;;;0.90;;
25091;SDS011;13082;52.374;4.946;2022-12-07T13:55:58;7.13;;;1.33;;
25091;SDS011;13082;52.374;4.946;2022-12-07T13:58:26;3.97;;;1.03;;
25091;SDS011;13082;52.374;4.946;2022-12-07T14:00:55;2.20;;;1.17;;
25091;SDS011;13082;52.374;4.946;2022-12-07T14:03:33;3.77;;;1.20;;
25091;SDS011;13082;52.374;4.946;2022-12-07T14:06:10;2.83;;;1.07;;
25091;SDS011;13082;52.374;4.946;2022-12-07T14:08:40;3.83;;;0.80;;
25091;SDS011;13082;52.374;4.946;2022-12-07T14:11:06;1.13;;;0.77;;
25091;SDS011;13082;52.374;4.946;2022-12-07T14:13:38;0.90;;;0.73;;
25091;SDS011;13082;52.374;4.946;2022-12-07T14:18:47;3.30;;;0.97;;
25091;SDS011;13082;52.374;4.946;2022-12-07T14:23:38;3.30;;;1.43;;
25091;SDS011;13082;52.374;4.946;2022-12-07T14:26:23;6.30;;;1.40;;
25091;SDS011;13082;52.374;4.946;2022-12-07T14:28:49;2.57;;;1.83;;
25091;SDS011;13082;52.374;4.946;2022-12-07T14:31:16;1.67;;;0.90;;
25091;SDS011;13082;52.374;4.946;2022-12-07T14:33:42;4.40;;;1.13;;
25091;SDS011;13082;52.374;4.946;2022-12-07T14:36:09;2.43;;;1.20;;
25091;SDS011;13082;52.374;4.946;2022-12-07T14:38:38;1.80;;;0.83;;
25091;SDS011;13082;52.374;4.946;2022-12-07T14:41:04;3.97;;;1.20;;
25091;SDS011;13082;52.374;4.946;2022-12-07T14:43:56;1.80;;;1.10;;
25091;SDS011;13082;52.374;4.946;2022-12-07T14:46:22;6.00;;;1.63;;
25091;SDS011;13082;52.374;4.946;2022-12-07T14:48:47;3.97;;;1.10;;
25091;SDS011;13082;52.374;4.946;2022-12-07T14:51:13;2.33;;;1.30;;
25091;SDS011;13082;52.374;4.946;2022-12-07T14:53:39;5.67;;;1.47;;
25091;SDS011;13082;52.374;4.946;2022-12-07T14:56:08;3.37;;;1.30;;
25091;SDS011;13082;52.374;4.946;2022-12-07T14:58:34;3.17;;;1.13;;
25091;SDS011;13082;52.374;4.946;2022-12-07T15:01:00;2.23;;;0.90;;
25091;SDS011;13082;52.374;4.946;2022-12-07T15:03:26;4.97;;;1.33;;
25091;SDS011;13082;52.374;4.946;2022-12-07T15:05:51;2.47;;;1.20;;
25091;SDS011;13082;52.374;4.946;2022-12-07T15:08:17;4.37;;;1.07;;
25091;SDS011;13082;52.374;4.946;2022-12-07T15:10:43;2.97;;;1.23;;
25091;SDS011;13082;52.374;4.946;2022-12-07T15:13:08;5.17;;;0.87;;
25091;SDS011;13082;52.374;4.946;2022-12-07T15:15:53;1.87;;;1.07;;
25091;SDS011;13082;52.374;4.946;2022-12-07T15:18:19;2.27;;;1.00;;
25091;SDS011;13082;52.374;4.946;2022-12-07T15:20:47;0.90;;;0.70;;
25091;SDS011;13082;52.374;4.946;2022-12-07T15:23:13;2.73;;;1.03;;
25091;SDS011;13082;52.374;4.946;2022-12-07T15:25:42;4.73;;;1.20;;
25091;SDS011;13082;52.374;4.946;2022-12-07T15:28:09;4.73;;;1.30;;
25091;SDS011;13082;52.374;4.946;2022-12-07T15:30:36;4.40;;;1.00;;
25091;SDS011;13082;52.374;4.946;2022-12-07T15:33:03;7.50;;;1.20;;
25091;SDS011;13082;52.374;4.946;2022-12-07T15:35:28;1.20;;;1.10;;
25091;SDS011;13082;52.374;4.946;2022-12-07T15:37:54;2.73;;;1.20;;
25091;SDS011;13082;52.374;4.946;2022-12-07T15:40:19;1.30;;;1.00;;
25091;SDS011;13082;52.374;4.946;2022-12-07T15:42:45;2.37;;;1.53;;
25091;SDS011;13082;52.374;4.946;2022-12-07T15:45:11;8.27;;;1.40;;
25091;SDS011;13082;52.374;4.946;2022-12-07T15:47:41;5.20;;;1.83;;
25091;SDS011;13082;52.374;4.946;2022-12-07T15:50:11;2.63;;;0.90;;
25091;SDS011;13082;52.374;4.946;2022-12-07T15:52:39;2.60;;;1.00;;
25091;SDS011;13082;52.374;4.946;2022-12-07T15:55:05;4.53;;;1.30;;
25091;SDS011;13082;52.374;4.946;2022-12-07T15:57:32;4.90;;;1.83;;
25091;SDS011;13082;52.374;4.946;2022-12-07T16:00:06;5.53;;;1.70;;
25091;SDS011;13082;52.374;4.946;2022-12-07T16:02:33;3.40;;;1.50;;
25091;SDS011;13082;52.374;4.946;2022-12-07T16:05:01;6.73;;;1.63;;
25091;SDS011;13082;52.374;4.946;2022-12-07T16:07:26;1.87;;;1.20;;
25091;SDS011;13082;52.374;4.946;2022-12-07T16:09:52;3.27;;;1.63;;
25091;SDS011;13082;52.374;4.946;2022-12-07T16:12:17;4.33;;;1.43;;
25091;SDS011;13082;52.374;4.946;2022-12-07T16:14:43;5.10;;;1.73;;
25091;SDS011;13082;52.374;4.946;2022-12-07T16:17:09;2.47;;;1.37;;
25091;SDS011;13082;52.374;4.946;2022-12-07T16:19:35;4.37;;;1.73;;
25091;SDS011;13082;52.374;4.946;2022-12-07T16:22:02;5.70;;;1.53;;
25091;SDS011;13082;52.374;4.946;2022-12-07T16:24:28;2.93;;;1.37;;
25091;SDS011;13082;52.374;4.946;2022-12-07T16:26:54;3.17;;;1.27;;
25091;SDS011;13082;52.374;4.946;2022-12-07T16:29:20;3.80;;;1.23;;
25091;SDS011;13082;52.374;4.946;2022-12-07T16:31:47;3.70;;;1.53;;
25091;SDS011;13082;52.374;4.946;2022-12-07T16:34:14;7.73;;;1.77;;
25091;SDS011;13082;52.374;4.946;2022-12-07T16:36:40;3.70;;;1.70;;
25091;SDS011;13082;52.374;4.946;2022-12-07T16:39:06;2.57;;;1.70;;
25091;SDS011;13082;52.374;4.946;2022-12-07T16:41:32;5.87;;;2.13;;
25091;SDS011;13082;52.374;4.946;2022-12-07T16:44:01;5.63;;;1.53;;
25091;SDS011;13082;52.374;4.946;2022-12-07T16:46:28;6.97;;;2.10;;
25091;SDS011;13082;52.374;4.946;2022-12-07T16:48:54;3.83;;;2.10;;
25091;SDS011;13082;52.374;4.946;2022-12-07T16:51:20;3.80;;;1.77;;
25091;SDS011;13082;52.374;4.946;2022-12-07T16:53:46;4.73;;;1.37;;